Holywood, United Kingdom
Current Conditions -  °F | °C
As of 6:20 PM on Sunday 25 Jan 2015 (Local Time) from EGAC Reporting Station
Light Rain Light Rain  
Wind Chill: 50°   Ceiling: 2100
Heat Index: 50°   Visibility: 6mi
Dew Point: 46°   Wind: 18mph
Humidity: 87%   Direction: 220°SW
Pressure: 30.09"   Gusts: NA
Location:  54.64°N, 5.82°W
Report Text: EGAC 251820Z 22016KT 9999 -RA FEW011 SCT017 BKN021 10/08 Q1019
Loading
Personal Weather Stations






























Interactive Weather Map New forecast layout! Learn more

10-Day Weather Forecast

Advertisements
Track Severe Weather on mobile